createdAt,value
2018-06-03T00:01:52.688Z,16.60
2018-06-03T00:04:23.443Z,14.50
2018-06-03T00:06:53.372Z,17.63
2018-06-03T00:09:23.308Z,15.00
2018-06-03T00:11:53.468Z,15.90
2018-06-03T00:14:24.149Z,14.40
2018-06-03T00:16:54.075Z,16.27
2018-06-03T00:19:24.060Z,16.07
2018-06-03T00:21:53.991Z,16.33
2018-06-03T00:24:24.439Z,15.60
2018-06-03T00:26:54.583Z,14.27
2018-06-03T00:29:24.498Z,15.93
2018-06-03T00:31:54.445Z,13.73
2018-06-03T00:34:24.377Z,17.00
2018-06-03T00:36:54.312Z,15.27
2018-06-03T00:39:24.248Z,14.83
2018-06-03T00:41:54.187Z,16.20
2018-06-03T00:44:24.317Z,18.53
2018-06-03T00:46:54.168Z,14.70
2018-06-03T00:49:23.979Z,17.20
2018-06-03T00:51:53.893Z,15.27
2018-06-03T00:54:24.467Z,15.27
2018-06-03T00:57:17.749Z,16.60
2018-06-03T00:59:47.677Z,17.40
2018-06-03T01:02:17.401Z,16.97
2018-06-03T01:04:47.139Z,14.90
2018-06-03T01:07:16.868Z,17.30
2018-06-03T01:09:48.029Z,16.70
2018-06-03T01:12:17.962Z,19.70
2018-06-03T01:14:47.860Z,15.03
2018-06-03T01:17:17.619Z,17.33
2018-06-03T01:19:47.350Z,16.97
2018-06-03T01:22:17.078Z,17.47
2018-06-03T01:24:47.016Z,15.70
2018-06-03T01:27:17.253Z,18.33
2018-06-03T01:29:47.796Z,15.10
2018-06-03T01:32:17.538Z,16.63
2018-06-03T01:34:47.261Z,18.77
2018-06-03T01:37:17.192Z,18.27
2018-06-03T01:39:46.921Z,18.10
2018-06-03T01:42:16.647Z,23.93
2018-06-03T01:44:46.586Z,17.60
2018-06-03T01:47:18.158Z,18.90
2018-06-03T01:49:47.890Z,18.73
2018-06-03T01:52:18.635Z,21.47
2018-06-03T01:54:48.365Z,22.40
2018-06-03T01:57:18.094Z,19.67
2018-06-03T01:59:48.030Z,19.67
2018-06-03T02:02:18.025Z,18.87
2018-06-03T02:04:47.895Z,21.77
2018-06-03T02:07:17.622Z,19.97
2018-06-03T02:09:47.354Z,20.80
2018-06-03T02:12:17.088Z,19.10
2018-06-03T02:14:47.017Z,19.67
2018-06-03T02:17:16.743Z,19.33
2018-06-03T02:19:46.470Z,21.43
2018-06-03T02:22:16.203Z,20.23
2018-06-03T02:24:45.944Z,20.83
2018-06-03T02:27:16.477Z,19.53
2018-06-03T02:29:46.822Z,18.60
2018-06-03T02:32:16.552Z,18.70
2018-06-03T02:34:46.276Z,18.80
2018-06-03T02:37:17.444Z,19.70
2018-06-03T02:39:47.176Z,16.17
2018-06-03T02:42:16.903Z,18.93
2018-06-03T02:44:46.631Z,18.53
2018-06-03T02:47:16.495Z,19.07
2018-06-03T02:49:47.117Z,21.07
2018-06-03T02:52:17.867Z,20.33
2018-06-03T02:54:47.598Z,18.40
2018-06-03T02:57:17.324Z,18.60
2018-06-03T02:59:47.261Z,19.83
2018-06-03T03:02:16.988Z,19.43
2018-06-03T03:04:46.720Z,18.83
2018-06-03T03:07:16.446Z,18.33
2018-06-03T03:09:47.608Z,18.30
2018-06-03T03:12:17.336Z,17.73
2018-06-03T03:14:47.273Z,18.97
2018-06-03T03:17:17.819Z,17.17
2018-06-03T03:19:48.776Z,19.03
2018-06-03T03:22:18.507Z,20.00
2018-06-03T03:24:49.018Z,16.20
2018-06-03T03:27:19.391Z,17.53
2018-06-03T03:29:50.830Z,15.47
2018-06-03T03:32:21.313Z,18.50
2018-06-03T03:34:51.039Z,18.67
2018-06-03T03:37:20.769Z,15.33
2018-06-03T03:39:50.717Z,15.80
2018-06-03T03:42:20.535Z,17.80
2018-06-03T03:44:50.370Z,16.30
2018-06-03T03:47:21.922Z,15.20
2018-06-03T03:49:52.467Z,16.73
2018-06-03T03:52:22.219Z,16.30
2018-06-03T03:54:52.159Z,17.10
2018-06-03T03:57:22.091Z,18.53
2018-06-03T03:59:51.814Z,15.90
2018-06-03T04:02:21.546Z,17.80
2018-06-03T04:04:51.889Z,17.77
2018-06-03T04:07:21.622Z,16.27
2018-06-03T04:09:51.553Z,18.17
2018-06-03T04:12:21.381Z,16.07
2018-06-03T04:14:51.215Z,16.97
2018-06-03T04:17:21.971Z,15.23
2018-06-03T04:19:51.805Z,16.77
2018-06-03T04:22:21.713Z,16.37
2018-06-03T04:24:51.566Z,19.50
2018-06-03T04:27:21.295Z,18.73
2018-06-03T04:29:51.209Z,16.40
2018-06-03T04:32:21.156Z,20.50
2018-06-03T04:34:51.921Z,15.80
2018-06-03T04:37:21.646Z,21.17
2018-06-03T04:39:51.375Z,19.30
2018-06-03T04:42:21.209Z,17.87
2018-06-03T04:44:51.606Z,18.70
2018-06-03T04:47:21.491Z,18.73
2018-06-03T04:49:51.215Z,16.57
2018-06-03T04:52:21.149Z,15.90
2018-06-03T04:54:50.879Z,16.00
2018-06-03T04:57:20.792Z,17.20
2018-06-03T04:59:50.653Z,17.53
2018-06-03T05:02:20.383Z,15.57
2018-06-03T05:04:51.129Z,17.67
2018-06-03T05:07:20.858Z,16.57
2018-06-03T05:09:50.598Z,15.90
2018-06-03T05:12:20.320Z,15.83
2018-06-03T05:14:50.048Z,17.40
2018-06-03T05:17:19.899Z,16.60
2018-06-03T05:19:49.811Z,17.70
2018-06-03T05:22:19.748Z,15.27
2018-06-03T05:24:49.480Z,18.53
2018-06-03T05:27:19.102Z,16.40
2018-06-03T05:29:49.040Z,16.23
2018-06-03T05:32:18.761Z,16.47
2018-06-03T05:34:48.495Z,16.97
2018-06-03T05:37:18.227Z,17.00
2018-06-03T05:39:48.164Z,15.53
2018-06-03T05:42:18.085Z,16.20
2018-06-03T05:44:48.024Z,15.33
2018-06-03T05:47:17.935Z,15.83
2018-06-03T05:49:47.687Z,15.03
2018-06-03T05:52:19.121Z,15.70
2018-06-03T05:54:48.992Z,15.30
2018-06-03T05:57:18.780Z,15.17
2018-06-03T05:59:48.544Z,15.93
2018-06-03T06:02:18.494Z,16.00
2018-06-03T06:04:48.831Z,14.97
2018-06-03T06:07:18.755Z,17.00
2018-06-03T06:09:48.489Z,15.77
2018-06-03T06:12:18.950Z,13.53
2018-06-03T06:14:48.855Z,14.37
2018-06-03T06:17:18.794Z,15.70
2018-06-03T06:19:48.523Z,16.53
2018-06-03T06:22:18.423Z,15.70
2018-06-03T06:24:48.381Z,13.90
2018-06-03T06:27:18.315Z,16.20
2018-06-03T06:29:48.665Z,16.70
2018-06-03T06:32:18.486Z,15.70
2018-06-03T06:34:48.546Z,16.10
2018-06-03T06:37:18.648Z,16.70
2018-06-03T06:39:48.595Z,16.17
2018-06-03T06:42:18.530Z,15.30
2018-06-03T06:44:49.179Z,18.17
2018-06-03T06:47:19.216Z,17.73
2018-06-03T06:49:49.358Z,17.20
2018-06-03T06:52:19.079Z,16.93
2018-06-03T06:54:50.466Z,16.53
2018-06-03T06:57:20.298Z,19.50
2018-06-03T06:59:50.216Z,18.43
2018-06-03T07:02:20.158Z,17.87
2018-06-03T07:05:52.527Z,20.27
2018-06-03T07:08:22.282Z,18.73
2018-06-03T07:10:52.023Z,17.93
2018-06-03T07:13:21.849Z,15.90
2018-06-03T07:15:51.987Z,18.83
2018-06-03T07:18:22.020Z,17.37
2018-06-03T07:20:51.925Z,17.50
2018-06-03T07:23:21.947Z,15.30
2018-06-03T07:25:51.954Z,17.43
2018-06-03T07:28:22.476Z,23.00
2018-06-03T07:30:52.408Z,17.73
2018-06-03T07:33:22.344Z,16.60
2018-06-03T07:35:52.468Z,15.97
2018-06-03T07:38:23.030Z,16.97
2018-06-03T07:40:52.944Z,16.37
2018-06-03T07:43:23.100Z,17.30
2018-06-03T07:45:53.033Z,17.90
2018-06-03T07:48:23.182Z,17.10
2018-06-03T07:50:53.299Z,16.13
2018-06-03T07:53:23.251Z,14.97
2018-06-03T07:55:53.349Z,17.60
2018-06-03T07:58:23.319Z,17.13
2018-06-03T08:00:53.452Z,15.07
2018-06-03T08:03:23.898Z,17.40
2018-06-03T08:05:53.876Z,16.83
2018-06-03T08:08:23.961Z,16.00
2018-06-03T08:10:53.909Z,14.77
2018-06-03T08:13:23.835Z,14.40
2018-06-03T08:15:53.975Z,16.50
2018-06-03T08:18:23.902Z,16.83
2018-06-03T08:20:54.308Z,16.87
2018-06-03T08:23:24.590Z,17.03
2018-06-03T08:25:54.627Z,17.20
2018-06-03T08:28:25.176Z,17.03
2018-06-03T08:30:55.104Z,16.83
2018-06-03T08:33:25.039Z,18.23
2018-06-03T08:35:56.412Z,17.30
2018-06-03T08:38:26.272Z,17.23
2018-06-03T08:40:56.280Z,16.70
2018-06-03T08:43:26.563Z,15.63
2018-06-03T08:45:56.545Z,17.43
2018-06-03T08:48:26.479Z,18.77
2018-06-03T08:50:56.768Z,19.07
2018-06-03T08:53:26.734Z,17.80
2018-06-03T08:55:56.698Z,17.50
2018-06-03T08:58:26.777Z,18.17
2018-06-03T09:00:57.179Z,16.47
2018-06-03T09:03:27.001Z,16.73
2018-06-03T09:05:57.343Z,20.47
2018-06-03T09:08:27.315Z,20.20
2018-06-03T09:10:58.096Z,18.23
2018-06-03T09:13:27.963Z,18.17
2018-06-03T09:15:58.103Z,18.20
2018-06-03T09:18:28.343Z,16.83
2018-06-03T09:20:58.483Z,17.70
2018-06-03T09:23:28.420Z,18.37
2018-06-03T09:25:58.569Z,19.23
2018-06-03T09:28:28.940Z,18.10
2018-06-03T09:31:04.260Z,18.97
2018-06-03T09:33:34.800Z,20.37
2018-06-03T09:36:04.741Z,19.00
2018-06-03T09:38:34.676Z,19.20
2018-06-03T09:41:04.792Z,18.33
2018-06-03T09:43:34.797Z,18.30
2018-06-03T09:46:04.901Z,19.43
2018-06-03T09:48:35.860Z,17.43
2018-06-03T09:51:06.006Z,17.80
2018-06-03T09:53:36.282Z,17.20
2018-06-03T09:56:06.259Z,17.37
2018-06-03T09:58:36.708Z,17.93
2018-06-03T10:01:06.814Z,16.90
2018-06-03T10:03:36.883Z,15.10
2018-06-03T10:06:07.043Z,18.00
2018-06-03T10:08:37.260Z,17.70
2018-06-03T10:11:07.396Z,18.60
2018-06-03T10:13:37.331Z,17.00
2018-06-03T10:16:07.529Z,62.57
2018-06-03T10:18:37.512Z,42.10
2018-06-03T10:21:07.541Z,27.27
2018-06-03T10:23:37.482Z,19.77
2018-06-03T10:26:07.615Z,17.63
2018-06-03T10:28:37.869Z,20.23
2018-06-03T10:31:08.071Z,21.30
2018-06-03T10:33:38.053Z,17.37
2018-06-03T10:36:08.383Z,20.47
2018-06-03T10:38:38.116Z,21.50
2018-06-03T10:41:08.451Z,18.70
2018-06-03T10:43:39.101Z,20.37
2018-06-03T10:49:07.846Z,21.00
2018-06-03T10:54:34.570Z,21.03
2018-06-03T10:57:04.439Z,20.10
2018-06-03T10:59:34.349Z,19.67
2018-06-03T11:02:04.260Z,17.83
2018-06-03T11:04:34.480Z,20.10
2018-06-03T11:07:04.510Z,20.73
2018-06-03T11:09:34.420Z,22.13
2018-06-03T11:12:04.428Z,20.17
2018-06-03T11:14:34.345Z,18.80
2018-06-03T11:17:04.258Z,32.30
2018-06-03T11:19:34.994Z,79.90
2018-06-03T11:22:05.036Z,133.20
2018-06-03T11:24:35.950Z,45.93
2018-06-03T11:27:05.860Z,44.10
2018-06-03T11:29:35.983Z,40.43
2018-06-03T11:32:06.090Z,32.63
2018-06-03T11:34:36.015Z,31.30
2018-06-03T11:37:06.082Z,32.17
2018-06-03T11:39:36.781Z,26.47
2018-06-03T11:42:07.528Z,29.03
2018-06-03T11:44:37.547Z,30.97
2018-06-03T11:47:08.049Z,26.00
2018-06-03T11:49:38.793Z,24.70
2018-06-03T11:52:10.287Z,22.67
2018-06-03T11:54:40.457Z,21.57
2018-06-03T11:57:10.568Z,24.90
2018-06-03T11:59:44.048Z,21.70
2018-06-03T12:02:16.628Z,29.20
2018-06-03T12:04:46.862Z,22.57
2018-06-03T12:07:17.189Z,21.53
2018-06-03T12:09:47.103Z,22.10
2018-06-03T12:12:17.093Z,20.37
2018-06-03T12:14:47.649Z,22.13
2018-06-03T12:17:17.715Z,19.43
2018-06-03T12:19:47.681Z,19.67
2018-06-03T12:22:17.995Z,19.70
2018-06-03T12:24:48.321Z,17.83
2018-06-03T12:27:18.593Z,20.43
2018-06-03T12:29:48.531Z,21.13
2018-06-03T12:32:19.374Z,66.23
2018-06-03T12:34:49.530Z,37.43
2018-06-03T12:37:20.569Z,31.00
2018-06-03T12:39:51.458Z,25.83
2018-06-03T12:42:21.707Z,26.73
2018-06-03T12:44:51.992Z,30.43
2018-06-03T12:47:21.969Z,23.10
2018-06-03T12:49:51.982Z,22.17
2018-06-03T12:52:22.506Z,22.87
2018-06-03T12:54:52.757Z,25.70
2018-06-03T12:57:22.966Z,23.27
2018-06-03T12:59:53.070Z,21.03
2018-06-03T13:02:23.252Z,20.20
2018-06-03T13:04:53.708Z,18.93
2018-06-03T13:07:23.716Z,18.70
2018-06-03T13:09:53.780Z,20.77
2018-06-03T13:12:24.250Z,18.47
2018-06-03T13:14:54.307Z,19.83
2018-06-03T13:17:25.926Z,18.73
2018-06-03T13:19:55.924Z,16.37
2018-06-03T13:22:26.181Z,20.30
2018-06-03T13:24:56.107Z,17.77
2018-06-03T13:27:26.329Z,21.50
2018-06-03T13:29:57.105Z,19.40
2018-06-03T13:32:28.812Z,20.03
2018-06-03T13:34:58.842Z,19.53
2018-06-03T13:37:28.945Z,20.60
2018-06-03T13:39:59.074Z,19.80
2018-06-03T13:42:29.288Z,22.37
2018-06-03T13:44:59.421Z,20.47
2018-06-03T13:47:29.552Z,21.47
2018-06-03T13:49:59.450Z,23.63
2018-06-03T13:52:29.364Z,23.63
2018-06-03T13:54:59.691Z,23.20
2018-06-03T13:57:29.810Z,23.80
2018-06-03T14:00:01.161Z,24.87
2018-06-03T14:02:31.311Z,26.87
2018-06-03T14:05:01.293Z,20.83
2018-06-03T14:07:32.872Z,22.13
2018-06-03T14:10:03.065Z,25.70
2018-06-03T14:12:33.509Z,24.40
2018-06-03T14:15:03.779Z,22.97
2018-06-03T14:17:33.734Z,24.50
2018-06-03T14:20:03.849Z,21.90
2018-06-03T14:22:33.887Z,20.90
2018-06-03T14:25:03.687Z,22.53
2018-06-03T14:27:33.806Z,32.17
2018-06-03T14:30:04.333Z,24.20
2018-06-03T14:32:34.242Z,20.17
2018-06-03T14:35:04.565Z,23.77
2018-06-03T14:37:34.787Z,22.40
2018-06-03T14:40:05.259Z,20.83
2018-06-03T14:42:35.377Z,21.40
2018-06-03T14:45:05.628Z,18.40
2018-06-03T14:47:36.901Z,16.00
2018-06-03T14:50:06.924Z,17.13
2018-06-03T14:52:37.654Z,18.30
2018-06-03T14:55:07.570Z,16.47
2018-06-03T14:57:37.788Z,15.50
2018-06-03T15:00:07.845Z,14.20
2018-06-03T15:02:37.821Z,14.30
2018-06-03T15:05:07.794Z,15.47
2018-06-03T15:07:38.417Z,14.40
2018-06-03T15:10:09.359Z,15.90
2018-06-03T15:12:39.783Z,15.57
2018-06-03T15:15:10.017Z,15.63
2018-06-03T15:17:40.582Z,15.60
2018-06-03T15:20:10.567Z,15.93
2018-06-03T15:22:40.696Z,15.80
2018-06-03T15:25:10.833Z,12.90
2018-06-03T15:27:40.830Z,15.90
2018-06-03T15:30:10.933Z,14.77
2018-06-03T15:32:40.990Z,14.10
2018-06-03T15:35:11.716Z,13.27
2018-06-03T15:37:42.183Z,12.50
2018-06-03T15:40:12.345Z,14.33
2018-06-03T15:42:42.397Z,15.83
2018-06-03T15:45:12.318Z,15.40
2018-06-03T15:47:42.446Z,13.90
2018-06-03T15:50:13.050Z,14.37
2018-06-03T15:52:43.210Z,16.30
2018-06-03T15:55:13.297Z,13.10
2018-06-03T15:57:43.330Z,15.60
2018-06-03T16:00:13.247Z,12.60
2018-06-03T16:02:43.060Z,15.13
2018-06-03T16:05:14.413Z,16.30
2018-06-03T16:07:44.897Z,17.13
2018-06-03T16:10:15.174Z,109.97
2018-06-03T16:12:45.283Z,61.00
2018-06-03T16:15:15.608Z,38.33
2018-06-03T16:17:45.700Z,29.30
2018-06-03T16:20:16.271Z,28.67
2018-06-03T16:22:46.428Z,31.93
2018-06-03T16:25:17.002Z,23.77
2018-06-03T16:27:47.016Z,24.20
2018-06-03T16:30:16.832Z,19.70
2018-06-03T16:32:46.438Z,22.43
2018-06-03T16:35:16.745Z,22.03
2018-06-03T16:37:46.860Z,21.27
2018-06-03T16:40:16.833Z,25.53
2018-06-03T16:42:46.719Z,25.40
2018-06-03T16:45:16.917Z,25.80
2018-06-03T16:47:48.658Z,22.70
2018-06-03T16:50:18.591Z,24.90
2018-06-03T16:52:49.117Z,21.23
2018-06-03T16:55:19.206Z,21.63
2018-06-03T16:57:49.151Z,19.77
2018-06-03T17:00:18.966Z,19.77
2018-06-03T17:02:48.929Z,21.10
2018-06-03T17:05:19.305Z,18.27
2018-06-03T17:07:49.819Z,18.37
2018-06-03T17:10:19.847Z,17.10
2018-06-03T17:12:49.972Z,17.30
2018-06-03T17:15:20.087Z,18.20
2018-06-03T17:17:50.336Z,19.00
2018-06-03T17:20:20.579Z,16.33
2018-06-03T17:22:50.956Z,18.20
2018-06-03T17:25:21.003Z,17.40
2018-06-03T17:27:51.356Z,14.43
2018-06-03T17:30:21.520Z,14.63
2018-06-03T17:32:51.844Z,15.53
2018-06-03T17:35:21.791Z,15.13
2018-06-03T17:37:51.984Z,16.90
2018-06-03T17:40:22.208Z,17.83
2018-06-03T17:42:53.963Z,14.37
2018-06-03T17:45:24.473Z,15.03
2018-06-03T17:47:55.224Z,12.53
2018-06-03T17:50:26.054Z,15.57
2018-06-03T17:52:55.866Z,14.97
2018-06-03T17:55:25.786Z,13.53
2018-06-03T17:57:56.369Z,11.90
2018-06-03T18:00:27.973Z,12.70
2018-06-03T18:02:58.165Z,12.97
2018-06-03T18:05:28.305Z,13.37
2018-06-03T18:07:58.438Z,12.37
2018-06-03T18:10:29.373Z,11.83
2018-06-03T18:13:00.922Z,12.73
2018-06-03T18:15:30.885Z,11.40
2018-06-03T18:18:01.153Z,12.03
2018-06-03T18:20:31.173Z,12.70
2018-06-03T18:23:01.478Z,12.73
2018-06-03T18:25:31.888Z,12.00
2018-06-03T18:28:02.140Z,12.17
2018-06-03T18:30:32.875Z,10.30
2018-06-03T18:33:02.978Z,10.00
2018-06-03T18:38:26.973Z,11.83
2018-06-03T18:40:57.151Z,10.40
2018-06-03T18:43:27.394Z,10.53
2018-06-03T18:45:57.656Z,10.30
2018-06-03T18:48:29.923Z,10.70
2018-06-03T18:50:59.986Z,11.70
2018-06-03T18:53:30.257Z,9.17
2018-06-03T18:56:00.773Z,10.00
2018-06-03T18:58:30.760Z,10.00
2018-06-03T19:01:00.828Z,10.73
2018-06-03T19:03:31.216Z,10.27
2018-06-03T19:06:01.174Z,10.37
2018-06-03T19:08:31.179Z,10.77
2018-06-03T19:11:01.080Z,9.90
2018-06-03T19:13:31.014Z,11.80
2018-06-03T19:16:01.964Z,11.00
2018-06-03T19:18:32.942Z,11.97
2018-06-03T19:21:03.218Z,10.40
2018-06-03T19:23:34.049Z,9.90
2018-06-03T19:26:04.376Z,11.70
2018-06-03T19:28:34.290Z,10.00
2018-06-03T19:31:04.408Z,11.77
2018-06-03T19:33:34.333Z,11.70
2018-06-03T19:36:04.338Z,12.37
2018-06-03T19:38:36.020Z,11.40
2018-06-03T19:41:06.339Z,11.87
2018-06-03T19:43:36.515Z,11.57
2018-06-03T19:46:06.682Z,11.83
2018-06-03T19:48:36.777Z,11.40
2018-06-03T19:51:06.896Z,11.37
2018-06-03T19:53:36.895Z,12.50
2018-06-03T19:56:06.828Z,11.30
2018-06-03T19:58:36.946Z,12.20
2018-06-03T20:01:07.007Z,11.70
2018-06-03T20:03:37.722Z,10.80
2018-06-03T20:06:07.802Z,12.57
2018-06-03T20:08:37.934Z,13.20
2018-06-03T20:11:08.358Z,13.30
2018-06-03T20:13:38.167Z,12.63
2018-06-03T20:16:08.125Z,13.70
2018-06-03T20:18:39.334Z,12.50
2018-06-03T20:21:09.310Z,12.53
2018-06-03T20:23:39.573Z,12.97
2018-06-03T20:26:09.628Z,11.87
2018-06-03T20:28:39.606Z,12.57
2018-06-03T20:31:09.621Z,11.60
2018-06-03T20:33:39.434Z,12.40
2018-06-03T20:36:09.616Z,14.40
2018-06-03T20:38:39.570Z,13.20
2018-06-03T20:41:09.587Z,13.27
2018-06-03T20:43:39.707Z,13.60
2018-06-03T20:46:09.827Z,13.53
2018-06-03T20:48:39.801Z,11.60
2018-06-03T20:51:09.755Z,10.80
2018-06-03T20:53:39.596Z,11.03
2018-06-03T20:56:09.586Z,10.17
2018-06-03T20:58:39.785Z,10.83
2018-06-03T21:01:09.958Z,11.00
2018-06-03T21:03:41.404Z,10.13
2018-06-03T21:06:11.393Z,11.40
2018-06-03T21:08:41.416Z,12.50
2018-06-03T21:11:11.428Z,11.00
2018-06-03T21:13:41.445Z,9.27
2018-06-03T21:16:11.359Z,12.17
2018-06-03T21:18:41.681Z,9.13
2018-06-03T21:21:12.397Z,9.47
2018-06-03T21:23:42.228Z,8.83
2018-06-03T21:26:12.347Z,10.23
2018-06-03T21:28:42.261Z,9.47
2018-06-03T21:31:12.746Z,10.23
2018-06-03T21:33:42.612Z,9.67
2018-06-03T21:36:12.520Z,8.33
2018-06-03T21:38:42.542Z,10.03
2018-06-03T21:41:13.703Z,9.77
2018-06-03T21:43:43.694Z,10.20
2018-06-03T21:46:14.020Z,9.20
2018-06-03T21:48:45.059Z,9.17
2018-06-03T21:51:15.207Z,8.43
2018-06-03T21:53:45.238Z,8.97
2018-06-03T21:56:15.113Z,8.20
2018-06-03T21:58:45.227Z,9.37
2018-06-03T22:01:15.292Z,9.90
2018-06-03T22:03:45.478Z,8.70
2018-06-03T22:06:15.469Z,10.03
2018-06-03T22:08:45.386Z,8.53
2018-06-03T22:11:15.518Z,9.80
2018-06-03T22:13:45.467Z,9.50
2018-06-03T22:16:15.430Z,8.80
2018-06-03T22:18:45.467Z,9.47
2018-06-03T22:21:15.583Z,8.70
2018-06-03T22:23:46.215Z,9.33
2018-06-03T22:26:16.131Z,10.00
2018-06-03T22:28:45.950Z,9.80
2018-06-03T22:31:15.855Z,9.80
2018-06-03T22:33:45.667Z,9.10
2018-06-03T22:36:15.584Z,10.53
2018-06-03T22:38:45.396Z,10.60
2018-06-03T22:41:16.334Z,9.50
2018-06-03T22:43:46.248Z,10.67
2018-06-03T22:46:16.161Z,12.13
2018-06-03T22:48:46.182Z,9.33
2018-06-03T22:51:16.097Z,11.03
2018-06-03T22:53:46.005Z,10.77
2018-06-03T22:56:16.946Z,10.90
2018-06-03T22:58:47.139Z,12.40
2018-06-03T23:01:17.689Z,11.60
2018-06-03T23:03:47.731Z,11.70
2018-06-03T23:06:17.834Z,11.10
2018-06-03T23:08:47.744Z,11.30
2018-06-03T23:11:18.921Z,10.90
2018-06-03T23:13:49.021Z,12.43
2018-06-03T23:16:19.065Z,11.40
2018-06-03T23:18:49.044Z,16.93
2018-06-03T23:21:19.576Z,12.40
2018-06-03T23:23:49.176Z,12.37
2018-06-03T23:26:19.097Z,12.70
2018-06-03T23:28:49.216Z,13.50
2018-06-03T23:31:19.535Z,12.00
2018-06-03T23:33:49.566Z,11.33
2018-06-03T23:36:20.491Z,12.70
2018-06-03T23:38:50.716Z,13.20
2018-06-03T23:41:20.626Z,13.77
2018-06-03T23:43:50.749Z,14.77
2018-06-03T23:46:20.873Z,11.73
2018-06-03T23:48:51.598Z,12.93
2018-06-03T23:51:21.512Z,12.90
2018-06-03T23:53:52.566Z,15.50
2018-06-03T23:56:22.367Z,13.60
2018-06-03T23:58:52.283Z,12.23
